Latest Weather Observations for Snowtown

IDS60801

Issued at 10:31 am CDT Saturday 7 March 2015 (issued every 30 minutes, with the page automatically refreshed every 10 minutes)

About weather observations | Map of weather stations | Latest weather observations for SA | Other Formats
Station Details ID: 021133 Name: RAYVILLE PARK Lat: -33.77 Lon: 138.22 Height: 109.1 m
Data from the previous 72 hours. | See also: Recent months at Snowtown
Date/Time
CDT
Temp
°C
App
Temp
°C
Dew
Point
Rel
Hum
%
Delta-T
°C
Wind Press
QNH
hPa
Press
MSL
hPa
Rain
since 9 am
mm
Dir
 
Spd
km/h
Gust
km/h
Spd
kts
Gust
kts
07/10:30am 19.4 17.2 10.9 58 4.6 SSE 13 19 7 10 1016.7 1016.4 0.0
07/10:00am 19.2 16.4 11.5 61 4.2 SSW 17 28 9 15 1016.7 1016.4 0.0
07/09:30am 19.2 16.4 11.5 61 4.2 S 17 22 9 12 1016.9 1016.6 0.0
07/09:00am 18.0 15.7 11.8 67 3.4 SSW 15 19 8 10 1016.9 1016.6 0.0
07/08:30am 17.5 15.7 12.0 70 3.0 SSW 13 20 7 11 1016.7 1016.4 0.0
07/08:00am 16.8 15.1 12.3 75 2.5 SSW 13 20 7 11 1016.7 1016.4 0.0
07/07:30am 16.4 14.7 12.4 77 2.2 SSW 13 19 7 10 1016.4 1016.1 0.0
07/07:00am 16.0 15.0 12.2 78 2.1 SSW 9 15 5 8 1015.8 1015.5 0.0
07/06:30am 15.1 14.4 11.9 81 1.7 S 7 9 4 5 1015.4 1015.1 0.0
07/06:00am 15.1 13.6 11.9 81 1.7 S 11 15 6 8 1015.2 1014.8 0.0
07/05:30am 15.1 13.5 11.7 80 1.8 SSW 11 15 6 8 1015.0 1014.6 0.0
07/05:00am 15.1 13.6 11.9 81 1.7 SSW 11 17 6 9 1015.1 1014.7 0.0
07/04:30am 14.7 13.6 11.8 83 1.6 SW 9 13 5 7 1015.2 1014.8 0.0
07/04:00am 14.8 13.6 11.6 81 1.7 SSW 9 11 5 6 1015.3 1014.9 0.0
07/03:30am 14.9 13.7 11.7 81 1.7 SSW 9 13 5 7 1015.5 1015.2 0.0
07/03:00am 15.3 13.4 11.9 80 1.8 SSW 13 15 7 8 1015.7 1015.4 0.0
07/02:30am 15.3 13.4 11.9 80 1.8 SSW 13 17 7 9 1015.9 1015.6 0.0
07/02:00am 15.6 12.6 11.8 78 2.1 SSW 19 24 10 13 1016.4 1016.1 0.0
07/01:30am 15.6 12.9 11.8 78 2.1 SSW 17 22 9 12 1016.7 1016.4 0.0
07/01:00am 15.8 13.1 11.8 77 2.2 SSW 17 24 9 13 1016.7 1016.4 0.0
07/12:30am 15.8 14.3 12.0 78 2.1 SSW 11 15 6 8 1017.0 1016.7 0.0
07/12:00am 16.1 14.4 12.3 78 2.1 S 13 17 7 9 1016.7 1016.4 0.0
 
Date/Time
CDT
Temp
°C
App
Temp
°C
Dew
Point
Rel
Hum
%
Delta-T
°C
Wind Press
QNH
hPa
Press
MSL
hPa
Rain
since 9 am
mm
Dir
 
Spd
km/h
Gust
km/h
Spd
kts
Gust
kts
06/11:30pm 16.4 13.9 12.4 77 2.2 SW 17 22 9 12 1017.1 1016.8 0.0
06/11:00pm 16.7 14.6 12.5 76 2.3 SW 15 19 8 10 1017.4 1017.1 0.0
06/10:30pm 15.4 13.4 11.6 78 2.1 SW 13 15 7 8 1017.4 1017.1 0.0
06/10:00pm 16.8 15.3 11.9 73 2.7 SSW 11 17 6 9 1017.4 1017.1 0.0
06/09:30pm 17.0 14.6 11.5 70 3.0 SW 15 19 8 10 1017.1 1016.8 0.0
06/09:00pm 17.6 14.8 11.4 67 3.4 SSW 17 24 9 13 1016.7 1016.4 0.0
06/08:30pm 18.2 14.8 10.6 61 4.1 SSW 19 24 10 13 1016.5 1016.2 0.0
06/08:00pm 19.2 15.6 10.5 57 4.7 SSW 20 30 11 16 1016.4 1016.1 0.0
06/07:30pm 20.3 15.9 10.4 53 5.4 SSW 24 30 13 16 1016.1 1015.8 0.0
06/07:00pm 21.4 17.0 10.3 49 6.1 S 24 33 13 18 1015.6 1015.3 0.0
06/06:30pm 22.8 18.6 9.9 44 7.0 SSW 22 30 12 16 1015.6 1015.3 0.0
06/06:00pm 23.3 19.4 9.3 41 7.6 SSW 20 28 11 15 1015.5 1015.2 0.0
06/05:30pm 24.1 20.1 8.9 38 8.2 SSW 20 28 11 15 1015.6 1015.3 0.0
06/05:00pm 23.5 19.5 8.4 38 8.1 S 19 28 10 15 1015.6 1015.3 0.0
06/04:30pm 24.1 20.5 8.5 37 8.4 S 17 24 9 13 1015.9 1015.6 0.0
06/04:00pm 23.9 20.3 8.3 37 8.3 S 17 26 9 14 1016.3 1016.0 0.0
06/03:30pm 23.6 19.8 9.2 40 7.8 S 19 28 10 15 1016.6 1016.3 0.0
06/03:00pm 23.5 19.5 8.4 38 8.1 SSW 19 28 10 15 1017.1 1016.8 0.0
06/02:30pm 22.3 18.2 8.8 42 7.2 S 20 32 11 17 1017.4 1017.1 0.0
06/02:00pm 21.7 17.0 9.3 45 6.7 S 24 35 13 19 1018.0 1017.7 0.0
06/01:30pm 21.5 16.9 9.7 47 6.4 S 24 33 13 18 1018.6 1018.3 0.0
06/01:00pm 21.0 17.2 9.9 49 6.0 S 20 33 11 18 1019.1 1018.8 0.0
06/12:30pm 21.0 16.6 10.5 51 5.7 S 24 35 13 19 1019.4 1019.1 0.0
06/12:00pm 20.1 15.5 9.7 51 5.6 SSW 24 39 13 21 1019.6 1019.3 0.0
06/11:30am 19.8 15.2 9.7 52 5.4 SSW 24 37 13 20 1019.8 1019.5 0.0
06/11:00am 18.9 14.6 9.4 54 5.0 S 22 33 12 18 1020.1 1019.8 0.0
06/10:30am 18.0 13.7 9.4 57 4.5 S 22 32 12 17 1020.3 1020.0 0.0
06/10:00am 17.7 14.0 9.3 58 4.4 S 19 32 10 17 1020.2 1019.9 0.0
06/09:30am 16.2 12.1 8.7 61 3.8 SSW 20 33 11 18 1020.3 1020.0 0.0
06/09:00am 15.8 12.0 9.0 64 3.5 SSW 19 26 10 14 1020.3 1020.0 0.0
06/08:30am 15.3 11.9 9.0 66 3.2 SSW 17 26 9 14 1020.5 1020.2 0.0
06/08:00am 14.7 10.9 8.9 68 3.0 SSW 19 24 10 13 1020.5 1020.2 0.0
06/07:30am 14.2 11.5 8.8 70 2.7 SSW 13 20 7 11 1020.2 1019.9 0.0
06/07:00am 14.0 10.9 8.8 71 2.6 SSW 15 24 8 13 1020.0 1019.7 0.0
06/06:30am 13.4 10.7 9.1 75 2.2 SW 13 20 7 11 1020.1 1019.8 0.0
06/06:00am 10.9 8.0 8.3 84 1.3 SW 13 15 7 8 1020.1 1019.8 0.0
06/05:30am 11.4 9.1 9.0 85 1.2 SW 11 15 6 8 1020.0 1019.7 0.0
06/05:00am 10.2 7.7 8.0 86 1.1 SW 11 15 6 8 1020.1 1019.8 0.0
06/04:30am 10.2 7.9 7.4 83 1.3 SW 9 13 5 7 1020.2 1019.9 0.0
06/04:00am 11.2 9.5 8.2 82 1.5 W 7 9 4 5 1020.2 1019.9 0.0
06/03:30am 12.1 9.7 8.8 80 1.6 S 11 15 6 8 1020.4 1020.1 0.0
06/03:00am 11.4 9.9 8.4 82 1.5 SW 6 7 3 4 1020.7 1020.4 0.0
06/02:30am 10.7 9.2 8.6 87 1.0 SW 6 9 3 5 1021.0 1020.7 0.0
06/02:00am 10.7 9.6 8.5 86 1.1 SW 4 7 2 4 1021.1 1020.8 0.0
06/01:30am 10.5 8.4 8.3 86 1.1 SSW 9 11 5 6 1021.5 1021.2 0.0
06/01:00am 10.8 8.0 8.6 86 1.1 SSW 13 13 7 7 1021.8 1021.5 0.0
06/12:30am 11.0 8.6 8.8 86 1.1 SW 11 13 6 7 1021.5 1021.2 0.0
06/12:00am 10.8 8.3 8.4 85 1.2 SW 11 13 6 7 1021.7 1021.4 0.0
 
Date/Time
CDT
Temp
°C
App
Temp
°C
Dew
Point
Rel
Hum
%
Delta-T
°C
Wind Press
QNH
hPa
Press
MSL
hPa
Rain
since 9 am
mm
Dir
 
Spd
km/h
Gust
km/h
Spd
kts
Gust
kts
05/11:30pm 10.7 8.1 7.8 82 1.4 SW 11 13 6 7 1022.0 1021.7 0.0
05/11:00pm 11.8 8.9 8.3 79 1.7 SW 13 13 7 7 1022.2 1021.9 0.0
05/10:30pm 12.3 10.0 7.6 73 2.3 SSW 9 13 5 7 1022.5 1022.1 0.0
05/10:00pm 13.8 11.0 8.6 71 2.6 S 13 17 7 9 1022.5 1022.1 0.0
05/09:30pm 14.8 11.7 9.0 68 3.0 S 15 20 8 11 1022.2 1021.9 0.0
05/09:00pm 15.4 11.8 8.2 62 3.6 S 17 22 9 12 1021.9 1021.6 0.0
05/08:30pm 16.1 11.9 7.6 57 4.3 S 19 24 10 13 1021.4 1021.1 0.0
05/08:00pm 17.1 12.3 7.2 52 5.0 S 22 28 12 15 1021.2 1020.9 0.0
05/07:30pm 17.9 12.0 7.3 50 5.3 S 28 35 15 19 1021.0 1020.7 0.0
05/07:00pm 18.7 12.5 7.8 49 5.6 S 30 37 16 20 1020.9 1020.6 0.0
05/06:30pm 19.5 13.6 7.3 45 6.2 SSW 28 39 15 21 1020.4 1020.1 0.0
05/06:00pm 20.2 14.2 7.2 43 6.6 SSW 28 39 15 21 1020.0 1019.7 0.0
05/05:30pm 21.2 15.1 6.7 39 7.4 SSW 28 39 15 21 1019.9 1019.6 0.0
05/05:00pm 21.8 16.3 6.1 36 8.0 SSW 24 32 13 17 1019.9 1019.6 0.0
05/04:30pm 22.3 16.0 5.7 34 8.4 SSW 28 39 15 21 1020.1 1019.8 0.0
05/04:00pm 22.6 16.4 6.0 34 8.4 SSW 28 35 15 19 1020.3 1020.0 0.0
05/03:30pm 23.3 18.5 5.7 32 8.9 SSW 20 33 11 18 1020.4 1020.1 0.0
05/03:00pm 22.8 17.5 4.8 31 8.9 SSW 22 44 12 24 1020.7 1020.4 0.0
05/02:30pm 22.8 16.7 4.8 31 8.9 S 26 35 14 19 1020.9 1020.6 0.0
05/02:00pm 22.3 16.4 5.7 34 8.4 S 26 43 14 23 1021.3 1021.0 0.0
05/01:30pm 22.0 15.5 4.6 32 8.6 SSE 28 41 15 22 1021.7 1021.4 0.0
05/01:00pm 21.1 15.3 4.2 33 8.2 S 24 39 13 21 1022.0 1021.7 0.0
05/12:30pm 21.3 15.6 4.8 34 8.1 SSE 24 32 13 17 1022.6 1022.2 0.0
05/12:00pm 20.9 15.6 6.8 40 7.2 S 24 35 13 19 1022.7 1022.3 0.0
05/11:30am 18.9 12.4 6.7 45 6.1 SSE 30 37 16 20 1023.2 1022.8 0.0
05/11:00am 18.9 13.0 7.7 48 5.7 S 28 41 15 22 1023.0 1022.6 0.0
05/10:30am 18.9 14.0 8.3 50 5.5 SSE 24 33 13 18 1022.9 1022.5 0.0
05/10:00am 18.3 13.1 8.8 54 5.0 SSE 26 32 14 17 1022.6 1022.2 0.0
05/09:30am 17.9 13.7 8.2 53 5.0 SE 20 28 11 15 1022.3 1022.0 0.0
05/09:00am 16.9 12.7 8.1 56 4.5 SE 20 26 11 14 1022.1 1021.8 0.0
05/08:30am 16.5 12.0 8.7 60 4.0 SE 22 28 12 15 1022.0 1021.7 0.0
05/08:00am 16.6 11.1 7.5 55 4.6 SSE 26 33 14 18 1022.0 1021.7 0.0
05/07:30am 16.2 11.9 9.2 63 3.6 SSE 22 28 12 15 1021.3 1021.0 0.0
05/07:00am 16.9 11.6 9.8 63 3.7 SSE 28 39 15 21 1020.7 1020.4 0.0
05/06:30am 17.1 12.6 10.2 64 3.7 S 24 35 13 19 1020.4 1020.1 0.0
05/06:00am 17.3 13.9 11.3 68 3.3 S 20 33 11 18 1020.4 1020.1 0.0
05/05:30am 16.7 13.9 12.7 77 2.2 S 19 32 10 17 1020.0 1019.7 0.0
05/05:00am 16.9 14.0 12.8 77 2.3 SSW 20 30 11 16 1019.5 1019.2 0.0
05/04:30am 17.1 13.8 12.8 76 2.4 SSW 22 30 12 16 1019.6 1019.3 0.0
05/04:00am 16.8 13.5 12.7 77 2.3 SSW 22 30 12 16 1019.2 1018.9 0.0
05/03:30am 17.5 14.1 12.6 73 2.7 SSW 22 30 12 16 1019.5 1019.2 0.0
05/03:00am 17.7 13.1 12.2 70 3.0 SW 28 35 15 19 1019.7 1019.4 0.0
05/02:30am 17.8 15.5 12.9 73 2.7 SSW 17 24 9 13 1020.0 1019.7 0.0
05/02:00am 17.9 15.6 11.7 67 3.4 SW 15 24 8 13 1020.3 1020.0 0.0
05/01:30am 17.9 15.4 11.2 65 3.6 SW 15 20 8 11 1020.2 1019.9 0.0
05/01:00am 18.0 15.7 11.6 66 3.5 SSW 15 20 8 11 1020.4 1020.1 0.0
05/12:30am 17.8 14.8 11.8 68 3.3 SW 19 26 10 14 1020.5 1020.2 0.0
05/12:00am 17.8 14.5 11.6 67 3.4 SSW 20 32 11 17 1020.1 1019.8 0.0
 
Date/Time
CDT
Temp
°C
App
Temp
°C
Dew
Point
Rel
Hum
%
Delta-T
°C
Wind Press
QNH
hPa
Press
MSL
hPa
Rain
since 9 am
mm
Dir
 
Spd
km/h
Gust
km/h
Spd
kts
Gust
kts
04/11:30pm 18.2 14.9 10.8 62 4.0 SSW 19 28 10 15 1020.0 1019.7 0.0
04/11:00pm 17.9 14.5 11.2 65 3.7 SSW 20 30 11 16 1020.1 1019.8 0.0
04/10:30pm 17.6 14.5 11.6 68 3.3 SSW 19 24 10 13 1020.1 1019.8 0.0
04/10:00pm 17.3 14.1 11.1 67 3.4 SSW 19 24 10 13 1020.1 1019.8 0.0
04/09:30pm 17.5 13.3 11.1 66 3.5 SSW 24 35 13 19 1019.7 1019.4 0.0
04/09:00pm 18.1 14.1 10.5 61 4.1 SSW 22 28 12 15 1019.2 1018.9 0.0
04/08:30pm 18.9 14.7 9.9 56 4.8 SW 22 30 12 16 1018.7 1018.4 0.0
04/08:00pm 19.7 16.2 10.1 54 5.2 SSW 19 28 10 15 1018.3 1018.0 0.0
04/07:30pm 20.7 16.2 10.2 51 5.7 SSW 24 32 13 17 1017.7 1017.4 0.0
04/07:00pm 22.3 17.3 9.5 44 6.9 SW 26 37 14 20 1017.4 1017.1 0.0
04/06:30pm 23.2 17.4 8.1 38 8.0 SW 28 41 15 22 1017.2 1016.9 0.0
04/06:00pm 23.9 17.1 6.7 33 8.9 SW 32 41 17 22 1017.0 1016.7 0.0
04/05:30pm 24.3 17.6 5.6 30 9.5 SW 30 41 16 22 1017.0 1016.7 0.0
04/05:00pm 24.6 17.5 6.4 31 9.4 SW 33 44 18 24 1016.7 1016.4 0.0
04/04:30pm 26.2 19.9 7.3 30 10.0 SW 30 39 16 21 1016.5 1016.2 0.0
04/04:00pm 26.9 20.6 7.4 29 10.4 SW 30 43 16 23 1016.6 1016.3 0.0
04/03:30pm 26.2 20.0 6.3 28 10.4 SW 28 37 15 20 1016.5 1016.2 0.0
04/03:00pm 27.2 21.6 5.5 25 11.2 SW 24 37 13 20 1016.9 1016.6 0.0
04/02:30pm 25.7 22.0 7.8 32 9.6 S 17 35 9 19 1017.4 1017.1 0.0
04/02:00pm 24.7 21.5 8.6 36 8.7 SSE 15 26 8 14 1017.8 1017.5 0.0
04/01:30pm 23.3 20.1 8.6 39 7.9 S 15 30 8 16 1018.0 1017.7 0.0
04/01:00pm 23.8 20.8 9.4 40 7.8 S 15 26 8 14 1018.3 1018.0 0.0
04/12:30pm 22.0 19.7 8.9 43 7.0 SSW 11 20 6 11 1018.9 1018.6 0.0
04/12:00pm 21.8 18.8 10.6 49 6.2 SSW 17 30 9 16 1019.4 1019.1 0.0
04/11:30am 20.8 17.2 10.6 52 5.6 SSW 20 32 11 17 1019.7 1019.4 0.0
04/11:00am 20.3 16.6 10.1 52 5.5 S 20 30 11 16 1019.7 1019.4 0.0

Other Formats:

Comma delimited format used in spreadsheet applications
http://www.bom.gov.au/fwo/IDS60801/IDS60801.95670.axf

JavaScript Object Notation format (JSON) in row-major order
http://www.bom.gov.au/fwo/IDS60801/IDS60801.95670.json